createdAt,value
2017-08-15T00:01:01.695Z,78.00
2017-08-15T00:03:28.642Z,78.00
2017-08-15T00:05:55.585Z,78.20
2017-08-15T00:08:22.531Z,78.60
2017-08-15T00:10:49.582Z,78.30
2017-08-15T00:13:16.928Z,78.70
2017-08-15T00:15:43.841Z,78.70
2017-08-15T00:18:10.726Z,78.70
2017-08-15T00:20:37.697Z,78.60
2017-08-15T00:23:04.993Z,78.50
2017-08-15T00:25:31.977Z,78.50
2017-08-15T00:27:58.921Z,78.30
2017-08-15T00:30:25.801Z,78.70
2017-08-15T00:32:52.718Z,78.80
2017-08-15T00:35:19.993Z,79.70
2017-08-15T00:37:46.886Z,79.70
2017-08-15T00:40:13.803Z,79.40
2017-08-15T00:42:40.690Z,79.80
2017-08-15T00:45:07.645Z,80.00
2017-08-15T00:47:34.530Z,80.00
2017-08-15T00:50:01.456Z,79.80
2017-08-15T00:52:28.738Z,80.10
2017-08-15T00:54:55.633Z,80.00
2017-08-15T00:57:22.555Z,80.10
2017-08-15T00:59:49.516Z,80.30
2017-08-15T01:02:16.464Z,80.20
2017-08-15T01:04:43.357Z,80.10
2017-08-15T01:07:10.247Z,80.10
2017-08-15T01:09:37.226Z,79.90
2017-08-15T01:12:04.582Z,80.10
2017-08-15T01:14:31.521Z,80.10
2017-08-15T01:16:58.396Z,80.10
2017-08-15T01:19:25.281Z,80.20
2017-08-15T01:21:52.204Z,80.20
2017-08-15T01:24:19.085Z,80.20
2017-08-15T01:26:45.971Z,80.30
2017-08-15T01:29:12.984Z,80.30
2017-08-15T01:31:39.869Z,80.10
2017-08-15T01:34:06.890Z,80.00
2017-08-15T01:36:33.814Z,80.00
2017-08-15T01:39:00.781Z,80.20
2017-08-15T01:41:27.825Z,80.30
2017-08-15T01:43:54.754Z,80.70
2017-08-15T01:46:21.722Z,80.70
2017-08-15T01:48:48.669Z,80.70
2017-08-15T01:51:15.625Z,80.60
2017-08-15T01:53:42.897Z,80.90
2017-08-15T01:56:09.815Z,80.90
2017-08-15T01:58:36.725Z,80.90
2017-08-15T02:01:03.722Z,80.80
2017-08-15T02:03:31.164Z,80.90
2017-08-15T02:05:58.113Z,81.00
2017-08-15T02:08:25.071Z,81.20
2017-08-15T02:10:52.386Z,81.50
2017-08-15T02:13:19.364Z,81.50
2017-08-15T02:15:46.259Z,81.70
2017-08-15T02:18:13.168Z,81.50
2017-08-15T02:20:40.513Z,81.30
2017-08-15T02:23:07.863Z,81.40
2017-08-15T02:25:34.754Z,81.40
2017-08-15T02:28:01.653Z,81.70
2017-08-15T02:30:28.581Z,81.30
2017-08-15T02:32:55.545Z,81.30
2017-08-15T02:35:22.425Z,81.50
2017-08-15T02:37:49.437Z,81.60
2017-08-15T02:40:16.397Z,81.60
2017-08-15T02:42:43.681Z,81.10
2017-08-15T02:45:10.584Z,81.10
2017-08-15T02:47:37.865Z,81.50
2017-08-15T02:50:04.809Z,81.50
2017-08-15T02:52:32.127Z,82.10
2017-08-15T02:54:59.044Z,82.10
2017-08-15T02:57:25.965Z,82.10
2017-08-15T02:59:52.881Z,82.00
2017-08-15T03:02:20.235Z,81.10
2017-08-15T03:04:47.178Z,81.10
2017-08-15T03:07:14.129Z,81.10
2017-08-15T03:09:41.013Z,81.60
2017-08-15T03:12:07.982Z,81.60
2017-08-15T03:14:34.965Z,81.70
2017-08-15T03:17:01.904Z,81.90
2017-08-15T03:19:28.861Z,82.20
2017-08-15T03:21:55.800Z,82.20
2017-08-15T03:24:22.680Z,81.90
2017-08-15T03:26:49.602Z,81.80
2017-08-15T03:29:16.878Z,81.50
2017-08-15T03:31:43.765Z,81.50
2017-08-15T03:34:10.755Z,81.50
2017-08-15T03:36:38.029Z,81.70
2017-08-15T03:39:04.933Z,81.70
2017-08-15T03:41:31.825Z,81.70
2017-08-15T03:43:58.837Z,81.70
2017-08-15T03:46:25.779Z,81.60
2017-08-15T03:48:52.693Z,81.50
2017-08-15T03:51:19.673Z,81.40
2017-08-15T03:53:46.595Z,81.40
2017-08-15T03:56:13.664Z,81.60
2017-08-15T03:58:40.574Z,81.70
2017-08-15T04:01:07.494Z,81.70
2017-08-15T04:03:34.381Z,81.60
2017-08-15T04:06:01.269Z,81.30
2017-08-15T04:08:28.606Z,81.90
2017-08-15T04:10:55.553Z,81.90
2017-08-15T04:13:22.498Z,81.70
2017-08-15T04:15:49.372Z,81.90
2017-08-15T04:18:16.393Z,82.00
2017-08-15T04:20:43.442Z,81.80
2017-08-15T04:23:10.350Z,81.70
2017-08-15T04:25:37.262Z,82.10
2017-08-15T04:28:04.185Z,82.00
2017-08-15T04:30:31.097Z,82.20
2017-08-15T04:32:58.071Z,82.20
2017-08-15T04:35:24.952Z,82.00
2017-08-15T04:37:51.982Z,81.80
2017-08-15T04:40:19.318Z,82.00
2017-08-15T04:42:46.265Z,82.00
2017-08-15T04:45:13.311Z,81.90
2017-08-15T04:47:40.261Z,81.40
2017-08-15T04:50:07.205Z,81.60
2017-08-15T04:52:34.122Z,81.80
2017-08-15T04:55:01.101Z,82.30
2017-08-15T04:57:28.053Z,82.40
2017-08-15T04:59:54.929Z,82.70
2017-08-15T05:02:21.813Z,82.50
2017-08-15T05:04:48.786Z,82.40
2017-08-15T05:07:15.734Z,82.40
2017-08-15T05:09:42.685Z,82.40
2017-08-15T05:12:10.357Z,82.10
2017-08-15T05:14:37.633Z,82.00
2017-08-15T05:17:04.512Z,82.00
2017-08-15T05:19:31.427Z,81.80
2017-08-15T05:21:58.431Z,81.90
2017-08-15T05:24:25.345Z,82.00
2017-08-15T05:26:52.325Z,82.00
2017-08-15T05:29:19.291Z,81.70
2017-08-15T05:31:46.561Z,81.70
2017-08-15T05:34:13.469Z,81.70
2017-08-15T05:36:40.497Z,81.60
2017-08-15T05:39:07.461Z,81.20
2017-08-15T05:41:34.404Z,81.20
2017-08-15T05:44:01.369Z,80.90
2017-08-15T05:46:28.665Z,80.80
2017-08-15T05:48:55.662Z,80.80
2017-08-15T05:51:22.976Z,80.70
2017-08-15T05:53:49.965Z,80.70
2017-08-15T05:56:17.001Z,80.30
2017-08-15T05:58:43.957Z,80.30
2017-08-15T06:01:10.951Z,80.10
2017-08-15T06:03:37.837Z,80.00
2017-08-15T06:06:04.801Z,80.00
2017-08-15T06:08:31.745Z,79.90
2017-08-15T06:10:58.690Z,79.40
2017-08-15T06:13:25.632Z,79.20
2017-08-15T06:15:52.581Z,78.90
2017-08-15T06:18:19.465Z,78.90
2017-08-15T06:20:46.364Z,78.50
2017-08-15T06:23:13.337Z,78.80
2017-08-15T06:25:40.682Z,78.70
2017-08-15T06:28:08.033Z,78.00
2017-08-15T06:30:35.077Z,78.00
2017-08-15T06:33:02.097Z,77.80
2017-08-15T06:35:29.019Z,77.30
2017-08-15T06:37:55.974Z,77.20
2017-08-15T06:40:22.850Z,77.10
2017-08-15T06:42:49.814Z,77.10
2017-08-15T06:45:16.717Z,77.30
2017-08-15T06:47:43.703Z,77.00
2017-08-15T06:50:10.649Z,76.40
2017-08-15T06:52:37.602Z,76.40
2017-08-15T06:55:04.547Z,75.80
2017-08-15T06:57:31.457Z,75.90
2017-08-15T06:59:58.407Z,75.60
2017-08-15T07:02:25.286Z,75.10
2017-08-15T07:04:52.562Z,75.10
2017-08-15T07:07:19.585Z,75.10
2017-08-15T07:09:46.476Z,75.20
2017-08-15T07:12:13.351Z,75.20
2017-08-15T07:14:40.321Z,74.80
2017-08-15T07:17:07.266Z,74.20
2017-08-15T07:19:34.218Z,74.30
2017-08-15T07:22:01.561Z,73.10
2017-08-15T07:24:28.519Z,73.10
2017-08-15T07:26:55.460Z,73.10
2017-08-15T07:29:22.409Z,73.10
2017-08-15T07:31:49.357Z,73.10
2017-08-15T07:34:16.303Z,73.00
2017-08-15T07:36:43.295Z,72.70
2017-08-15T07:39:10.197Z,72.70
2017-08-15T07:41:37.077Z,72.20
2017-08-15T07:44:04.093Z,72.20
2017-08-15T07:46:31.377Z,72.40
2017-08-15T07:48:58.262Z,72.40
2017-08-15T07:51:25.217Z,72.10
2017-08-15T07:53:52.177Z,72.50
2017-08-15T07:56:19.124Z,72.90
2017-08-15T07:58:46.041Z,73.00
2017-08-15T08:01:12.941Z,72.70
2017-08-15T08:03:40.245Z,72.00
2017-08-15T08:06:07.185Z,72.00
2017-08-15T08:08:34.171Z,71.90
2017-08-15T08:11:01.164Z,71.30
2017-08-15T08:13:28.079Z,71.00
2017-08-15T08:15:55.430Z,70.80
2017-08-15T08:18:22.754Z,69.80
2017-08-15T08:20:49.637Z,69.80
2017-08-15T08:23:16.920Z,70.10
2017-08-15T08:25:43.834Z,70.10
2017-08-15T08:28:11.230Z,69.40
2017-08-15T08:30:38.110Z,69.40
2017-08-15T08:33:05.017Z,69.30
2017-08-15T08:35:31.929Z,69.30
2017-08-15T08:37:59.230Z,69.20
2017-08-15T08:40:26.166Z,69.20
2017-08-15T08:42:53.158Z,69.10
2017-08-15T08:45:20.052Z,69.30
2017-08-15T08:47:46.975Z,69.30
2017-08-15T08:50:13.997Z,68.50
2017-08-15T08:52:40.882Z,68.10
2017-08-15T08:55:07.786Z,68.40
2017-08-15T08:57:34.741Z,68.10
2017-08-15T09:00:02.018Z,68.10
2017-08-15T09:02:28.947Z,68.10
2017-08-15T09:04:56.260Z,67.70
2017-08-15T09:07:23.235Z,67.70
2017-08-15T09:09:50.167Z,67.60
2017-08-15T09:12:17.061Z,67.20
2017-08-15T09:14:43.975Z,66.60
2017-08-15T09:17:11.333Z,65.00
2017-08-15T09:19:38.637Z,65.60
2017-08-15T09:22:05.536Z,65.60
2017-08-15T09:24:32.891Z,65.60
2017-08-15T09:27:00.173Z,65.40
2017-08-15T09:29:27.095Z,65.40
2017-08-15T09:31:54.376Z,64.50
2017-08-15T09:34:21.398Z,64.50
2017-08-15T09:36:48.281Z,65.20
2017-08-15T09:39:15.317Z,65.40
2017-08-15T09:41:42.237Z,64.70
2017-08-15T09:44:09.517Z,65.00
2017-08-15T09:46:36.446Z,65.00
2017-08-15T09:49:03.345Z,63.70
2017-08-15T09:51:30.271Z,64.20
2017-08-15T09:53:57.161Z,64.60
2017-08-15T09:56:24.112Z,64.80
2017-08-15T09:58:51.066Z,64.50
2017-08-15T10:01:18.415Z,64.80
2017-08-15T10:03:45.314Z,64.80
2017-08-15T10:06:12.224Z,64.60
2017-08-15T10:08:39.549Z,63.40
2017-08-15T10:11:06.433Z,63.40
2017-08-15T10:13:33.341Z,63.80
2017-08-15T10:16:00.272Z,64.70
2017-08-15T10:18:27.234Z,65.50
2017-08-15T10:20:54.109Z,64.70
2017-08-15T10:23:21.058Z,65.10
2017-08-15T10:25:48.020Z,64.70
2017-08-15T10:28:14.905Z,65.10
2017-08-15T10:30:41.882Z,63.80
2017-08-15T10:33:09.165Z,64.30
2017-08-15T10:35:36.176Z,64.30
2017-08-15T10:38:03.126Z,64.70
2017-08-15T10:40:30.066Z,64.30
2017-08-15T10:42:57.014Z,64.20
2017-08-15T10:45:23.956Z,64.20
2017-08-15T10:47:50.870Z,63.40
2017-08-15T10:50:17.803Z,62.80
2017-08-15T10:52:44.697Z,63.30
2017-08-15T10:55:11.646Z,62.80
2017-08-15T10:57:38.553Z,63.30
2017-08-15T11:00:05.457Z,62.50
2017-08-15T11:02:32.835Z,63.20
2017-08-15T11:04:59.783Z,63.20
2017-08-15T11:07:26.788Z,63.40
2017-08-15T11:09:53.674Z,63.00
2017-08-15T11:12:20.585Z,63.00
2017-08-15T11:14:47.877Z,64.50
2017-08-15T11:17:14.879Z,64.50
2017-08-15T11:19:41.838Z,65.10
2017-08-15T11:22:09.201Z,64.30
2017-08-15T11:24:36.565Z,64.10
2017-08-15T11:27:03.486Z,64.10
2017-08-15T11:29:30.765Z,63.20
2017-08-15T11:31:57.650Z,63.20
2017-08-15T11:34:24.630Z,62.40
2017-08-15T11:36:51.545Z,63.40
2017-08-15T11:39:18.542Z,63.20
2017-08-15T11:41:45.900Z,62.90
2017-08-15T11:44:13.757Z,62.90
2017-08-15T11:46:41.044Z,63.50
2017-08-15T11:49:07.953Z,63.50
2017-08-15T11:51:35.288Z,64.80
2017-08-15T11:54:02.269Z,64.80
2017-08-15T11:56:29.570Z,65.60
2017-08-15T11:58:56.554Z,65.60
2017-08-15T12:01:23.917Z,66.50
2017-08-15T12:03:51.202Z,66.30
2017-08-15T12:06:18.105Z,66.30
2017-08-15T12:08:45.069Z,66.60
2017-08-15T12:11:12.373Z,68.60
2017-08-15T12:13:39.268Z,68.60
2017-08-15T12:16:06.630Z,72.50
2017-08-15T12:18:33.553Z,72.50
2017-08-15T12:21:00.501Z,73.60
2017-08-15T12:23:27.390Z,73.30
2017-08-15T12:25:54.275Z,72.50
2017-08-15T12:28:21.248Z,75.40
2017-08-15T12:30:48.553Z,80.20
2017-08-15T12:33:15.553Z,80.20
2017-08-15T12:35:42.866Z,82.40
2017-08-15T12:38:09.765Z,82.40
2017-08-15T12:40:37.139Z,83.00
2017-08-15T12:43:04.055Z,83.00
2017-08-15T12:45:31.401Z,83.20
2017-08-15T12:47:58.357Z,83.20
2017-08-15T12:50:25.638Z,83.10
2017-08-15T12:52:52.544Z,83.10
2017-08-15T12:55:19.506Z,83.20
2017-08-15T12:57:46.849Z,83.00
2017-08-15T13:00:13.734Z,83.00
2017-08-15T13:02:40.644Z,83.80
2017-08-15T13:05:07.921Z,84.40
2017-08-15T13:07:34.949Z,84.40
2017-08-15T13:10:01.902Z,84.90
2017-08-15T13:12:29.249Z,84.90
2017-08-15T13:14:56.543Z,85.40
2017-08-15T13:17:23.473Z,85.40
2017-08-15T13:19:50.398Z,85.90
2017-08-15T13:22:17.802Z,87.30
2017-08-15T13:24:44.818Z,87.20
2017-08-15T13:27:12.158Z,86.70
2017-08-15T13:29:39.522Z,85.50
2017-08-15T13:32:06.919Z,85.20
2017-08-15T13:34:33.945Z,85.20
2017-08-15T13:37:00.983Z,86.20
2017-08-15T13:39:28.311Z,86.50
2017-08-15T13:41:55.261Z,86.50
2017-08-15T13:44:22.229Z,86.10
2017-08-15T13:46:49.570Z,85.20
2017-08-15T13:49:16.927Z,83.80
2017-08-15T13:51:44.253Z,83.80
2017-08-15T13:54:11.133Z,83.80
2017-08-15T13:56:38.421Z,82.60
2017-08-15T13:59:05.470Z,82.60
2017-08-15T14:01:32.362Z,82.80
2017-08-15T14:03:59.247Z,83.10
2017-08-15T14:06:26.279Z,83.70
2017-08-15T14:08:53.557Z,83.40
2017-08-15T14:11:20.546Z,83.40
2017-08-15T14:13:47.839Z,83.70
2017-08-15T14:16:14.741Z,83.70
2017-08-15T14:18:41.625Z,83.30
2017-08-15T14:21:08.560Z,83.10
2017-08-15T14:23:35.457Z,83.00
2017-08-15T14:26:02.469Z,83.80
2017-08-15T14:28:29.406Z,84.50
2017-08-15T14:30:56.292Z,84.50
2017-08-15T14:33:23.172Z,83.60
2017-08-15T14:35:50.477Z,84.00
2017-08-15T14:38:17.405Z,84.00
2017-08-15T14:40:44.294Z,84.00
2017-08-15T14:43:11.209Z,83.60
2017-08-15T14:45:38.098Z,83.20
2017-08-15T14:48:05.000Z,83.90
2017-08-15T14:50:31.924Z,83.60
2017-08-15T14:52:58.807Z,83.50
2017-08-15T14:55:25.718Z,83.20
2017-08-15T14:57:52.642Z,82.80
2017-08-15T15:00:19.925Z,82.70
2017-08-15T15:02:46.841Z,82.70
2017-08-15T15:05:14.114Z,82.40
2017-08-15T15:07:41.050Z,82.40
2017-08-15T15:10:08.323Z,81.90
2017-08-15T15:12:35.226Z,81.90
2017-08-15T15:15:02.139Z,82.20
2017-08-15T15:17:29.018Z,82.00
2017-08-15T15:19:55.922Z,81.70
2017-08-15T15:22:22.859Z,81.90
2017-08-15T15:24:49.733Z,82.10
2017-08-15T15:27:16.617Z,82.00
2017-08-15T15:29:43.924Z,81.90
2017-08-15T15:32:10.833Z,81.90
2017-08-15T15:34:37.708Z,82.00
2017-08-15T15:37:04.645Z,82.10
2017-08-15T15:39:31.525Z,81.90
2017-08-15T15:41:58.405Z,81.80
2017-08-15T15:44:25.330Z,82.20
2017-08-15T15:46:52.606Z,82.40
2017-08-15T15:49:19.514Z,82.30
2017-08-15T15:51:46.515Z,82.60
2017-08-15T15:54:13.389Z,82.60
2017-08-15T15:56:40.307Z,82.90
2017-08-15T15:59:07.193Z,82.60
2017-08-15T16:01:34.075Z,82.60
2017-08-15T16:04:01.373Z,82.80
2017-08-15T16:06:28.282Z,82.80
2017-08-15T16:08:55.165Z,82.80
2017-08-15T16:11:22.079Z,82.50
2017-08-15T16:13:48.979Z,82.20
2017-08-15T16:16:16.313Z,81.80
2017-08-15T16:18:43.202Z,81.80
2017-08-15T16:21:10.478Z,82.00
2017-08-15T16:23:37.398Z,82.00
2017-08-15T16:26:04.289Z,81.40
2017-08-15T16:28:31.180Z,81.20
2017-08-15T16:30:58.485Z,79.90
2017-08-15T16:33:25.370Z,79.90
2017-08-15T16:35:52.641Z,79.40
2017-08-15T16:38:19.606Z,79.40
2017-08-15T16:40:46.499Z,79.50
2017-08-15T16:43:13.386Z,79.60
2017-08-15T16:45:40.309Z,80.50
2017-08-15T16:48:07.587Z,81.50
2017-08-15T16:50:34.465Z,81.50
2017-08-15T16:53:01.406Z,81.50
2017-08-15T16:55:28.294Z,80.90
2017-08-15T16:57:55.180Z,80.70
2017-08-15T17:00:22.105Z,80.50
2017-08-15T17:02:49.381Z,80.90
2017-08-15T17:05:16.265Z,80.90
2017-08-15T17:07:43.182Z,81.40
2017-08-15T17:10:10.057Z,81.30
2017-08-15T17:12:36.942Z,81.50
2017-08-15T17:15:03.865Z,81.50
2017-08-15T17:17:30.751Z,81.70
2017-08-15T17:19:57.630Z,81.90
2017-08-15T17:22:24.603Z,81.60
2017-08-15T17:24:51.486Z,82.00
2017-08-15T17:27:18.385Z,82.10
2017-08-15T17:29:45.305Z,82.10
2017-08-15T17:32:12.185Z,82.20
2017-08-15T17:34:39.463Z,82.60
2017-08-15T17:37:06.377Z,82.60
2017-08-15T17:39:33.253Z,82.50
2017-08-15T17:42:00.141Z,82.60
2017-08-15T17:44:27.069Z,82.40
2017-08-15T17:46:53.949Z,82.10
2017-08-15T17:49:20.834Z,82.30
2017-08-15T17:51:47.762Z,82.60
2017-08-15T17:54:15.038Z,82.50
2017-08-15T17:56:41.933Z,82.50
2017-08-15T17:59:08.870Z,82.20
2017-08-15T18:01:35.750Z,82.30
2017-08-15T18:04:03.021Z,82.60
2017-08-15T18:06:29.957Z,82.60
2017-08-15T18:08:57.235Z,82.40
2017-08-15T18:11:24.119Z,82.40
2017-08-15T18:13:51.031Z,82.40
2017-08-15T18:16:17.909Z,82.40
2017-08-15T18:18:44.817Z,82.80
2017-08-15T18:21:11.726Z,82.80
2017-08-15T18:23:39.001Z,83.00
2017-08-15T18:26:05.921Z,83.00
2017-08-15T18:28:32.838Z,83.50
2017-08-15T18:30:59.744Z,83.90
2017-08-15T18:33:26.689Z,84.10
2017-08-15T18:35:53.569Z,83.70
2017-08-15T18:38:20.500Z,83.20
2017-08-15T18:40:47.425Z,83.10
2017-08-15T18:43:14.498Z,83.10
2017-08-15T18:45:41.421Z,83.30
2017-08-15T18:48:08.336Z,83.40
2017-08-15T18:50:35.217Z,83.60
2017-08-15T18:53:02.101Z,83.10
2017-08-15T18:55:29.010Z,83.10
2017-08-15T18:57:55.900Z,83.40
2017-08-15T19:00:23.770Z,83.60
2017-08-15T19:02:50.706Z,84.40
2017-08-15T19:05:17.593Z,84.60
2017-08-15T19:07:44.877Z,84.20
2017-08-15T19:10:11.806Z,84.20
2017-08-15T19:12:38.698Z,84.00
2017-08-15T19:15:05.586Z,84.10
2017-08-15T19:17:32.902Z,84.20
2017-08-15T19:19:59.801Z,84.20
2017-08-15T19:22:26.694Z,84.40
2017-08-15T19:24:53.656Z,84.60
2017-08-15T19:27:20.541Z,84.60
2017-08-15T19:29:47.446Z,84.70
2017-08-15T19:32:14.365Z,84.60
2017-08-15T19:34:41.255Z,84.50
2017-08-15T19:37:18.534Z,84.50
2017-08-15T19:39:45.454Z,84.50
2017-08-15T19:42:12.341Z,84.70
2017-08-15T19:44:39.665Z,84.60
2017-08-15T19:47:06.574Z,84.70
2017-08-15T19:49:33.462Z,84.60
2017-08-15T19:52:00.406Z,84.70
2017-08-15T19:54:27.397Z,84.60
2017-08-15T19:56:54.298Z,84.70
2017-08-15T19:59:21.348Z,84.70
2017-08-15T20:01:48.304Z,84.90
2017-08-15T20:04:15.186Z,84.70
2017-08-15T20:06:42.122Z,84.60
2017-08-15T20:09:09.005Z,84.80
2017-08-15T20:11:35.885Z,84.70
2017-08-15T20:14:03.205Z,84.50
2017-08-15T20:16:30.086Z,84.50
2017-08-15T20:18:56.982Z,84.50
2017-08-15T20:21:24.181Z,84.80
2017-08-15T20:23:51.065Z,84.90
2017-08-15T20:26:17.945Z,84.90
2017-08-15T20:28:44.873Z,84.50
2017-08-15T20:31:11.757Z,84.30
2017-08-15T20:33:38.642Z,84.30
2017-08-15T20:36:05.561Z,84.60
2017-08-15T20:38:32.837Z,84.80
2017-08-15T20:40:59.717Z,84.80
2017-08-15T20:43:26.658Z,84.80
2017-08-15T20:45:53.538Z,84.80
2017-08-15T20:48:20.421Z,84.60
2017-08-15T20:50:47.337Z,84.60
2017-08-15T20:53:14.621Z,84.70
2017-08-15T20:55:41.492Z,84.70
2017-08-15T20:58:08.409Z,84.80
2017-08-15T21:00:35.293Z,84.60
2017-08-15T21:03:02.176Z,84.60
2017-08-15T21:05:29.490Z,84.80
2017-08-15T21:07:56.382Z,84.80
2017-08-15T21:10:23.664Z,85.00
2017-08-15T21:12:50.585Z,85.00
2017-08-15T21:15:17.863Z,84.50
2017-08-15T21:17:44.753Z,84.50
2017-08-15T21:20:11.682Z,84.60
2017-08-15T21:22:38.561Z,84.50
2017-08-15T21:25:05.840Z,84.70
2017-08-15T21:27:32.767Z,84.70
2017-08-15T21:30:00.051Z,84.50
2017-08-15T21:32:26.932Z,84.50
2017-08-15T21:34:53.874Z,84.60
2017-08-15T21:37:20.757Z,84.70
2017-08-15T21:39:48.029Z,85.00
2017-08-15T21:42:14.953Z,85.00
2017-08-15T21:44:41.836Z,84.80
2017-08-15T21:47:08.720Z,84.80
2017-08-15T21:49:35.646Z,84.60
2017-08-15T21:52:03.570Z,84.50
2017-08-15T21:54:30.854Z,84.80
2017-08-15T21:56:57.786Z,84.80
2017-08-15T21:59:24.669Z,85.20
2017-08-15T22:01:51.561Z,85.60
2017-08-15T22:04:18.886Z,85.60
2017-08-15T22:06:45.769Z,85.60
2017-08-15T22:09:12.662Z,85.80
2017-08-15T22:11:39.585Z,85.80
2017-08-15T22:14:06.473Z,86.00
2017-08-15T22:16:33.367Z,86.00
2017-08-15T22:19:00.286Z,86.00
2017-08-15T22:21:27.566Z,86.30
2017-08-15T22:23:54.457Z,86.30
2017-08-15T22:26:21.394Z,86.30
2017-08-15T22:28:48.285Z,86.50
2017-08-15T22:31:15.573Z,86.40
2017-08-15T22:33:42.509Z,86.40
2017-08-15T22:36:09.397Z,86.50
2017-08-15T22:38:36.302Z,86.10
2017-08-15T22:41:03.245Z,86.10
2017-08-15T22:43:30.189Z,86.40
2017-08-15T22:45:57.078Z,86.40
2017-08-15T22:48:24.016Z,86.50
2017-08-15T22:50:50.910Z,86.40
2017-08-15T22:53:17.801Z,86.10
2017-08-15T22:55:44.765Z,86.30
2017-08-15T22:58:11.674Z,86.50
2017-08-15T23:00:38.562Z,86.50
2017-08-15T23:03:05.502Z,86.50
2017-08-15T23:05:32.390Z,86.50
2017-08-15T23:07:59.289Z,86.40
2017-08-15T23:10:26.231Z,86.50
2017-08-15T23:12:53.124Z,86.40
2017-08-15T23:15:20.022Z,86.60
2017-08-15T23:17:46.945Z,86.80
2017-08-15T23:20:13.837Z,87.00
2017-08-15T23:22:41.126Z,86.90
2017-08-15T23:25:08.045Z,86.90
2017-08-15T23:27:34.934Z,87.00
2017-08-15T23:30:01.844Z,86.90
2017-08-15T23:32:29.159Z,87.00
2017-08-15T23:34:56.048Z,87.00
2017-08-15T23:37:22.941Z,86.70
2017-08-15T23:39:49.882Z,86.70
2017-08-15T23:42:16.765Z,86.70
2017-08-15T23:44:43.650Z,86.60
2017-08-15T23:47:10.565Z,86.60
2017-08-15T23:49:37.845Z,86.80
2017-08-15T23:52:04.722Z,86.70
2017-08-15T23:54:31.681Z,86.80
2017-08-15T23:56:58.573Z,86.80
2017-08-15T23:59:25.462Z,86.60
